createdAt,value
2023-04-08T00:02:17.250Z,1.20
2023-04-08T00:04:46.584Z,1.40
2023-04-08T00:07:14.443Z,1.07
2023-04-08T00:09:42.296Z,1.37
2023-04-08T00:12:10.265Z,1.23
2023-04-08T00:14:38.421Z,1.30
2023-04-08T00:17:06.498Z,1.40
2023-04-08T00:19:36.222Z,1.30
2023-04-08T00:22:05.761Z,1.27
2023-04-08T00:24:33.806Z,1.07
2023-04-08T00:27:02.800Z,1.17
2023-04-08T00:29:30.789Z,1.20
2023-04-08T00:31:58.714Z,1.60
2023-04-08T00:34:27.047Z,1.23
2023-04-08T00:36:54.904Z,1.50
2023-04-08T00:39:24.106Z,1.20
2023-04-08T00:41:52.019Z,1.10
2023-04-08T00:44:19.911Z,1.03
2023-04-08T00:46:48.587Z,1.23
2023-04-08T00:49:17.482Z,1.30
2023-04-08T00:51:45.383Z,1.10
2023-04-08T00:54:13.255Z,1.10
2023-04-08T00:56:44.558Z,1.30
2023-04-08T00:59:12.729Z,1.40
2023-04-08T01:01:45.752Z,1.13
2023-04-08T01:04:23.112Z,1.23
2023-04-08T01:06:57.249Z,1.43
2023-04-08T01:09:30.990Z,1.40
2023-04-08T01:12:04.885Z,1.87
2023-04-08T01:14:36.429Z,1.03
2023-04-08T01:17:05.890Z,1.20
2023-04-08T01:19:39.727Z,1.23
2023-04-08T01:22:16.662Z,1.40
2023-04-08T01:24:46.640Z,1.50
2023-04-08T01:27:17.104Z,1.50
2023-04-08T01:29:46.348Z,1.37
2023-04-08T01:32:15.440Z,1.27
2023-04-08T01:34:44.506Z,1.30
2023-04-08T01:37:13.428Z,1.40
2023-04-08T01:39:43.021Z,1.40
2023-04-08T01:42:11.871Z,1.00
2023-04-08T01:44:41.993Z,1.00
2023-04-08T01:47:10.840Z,1.30
2023-04-08T01:49:39.167Z,1.43
2023-04-08T01:52:10.026Z,1.50
2023-04-08T01:54:37.978Z,1.40
2023-04-08T01:57:08.765Z,1.20
2023-04-08T01:59:39.773Z,0.90
2023-04-08T02:02:10.762Z,1.40
2023-04-08T02:04:38.769Z,1.10
2023-04-08T02:07:06.994Z,1.40
2023-04-08T02:09:34.950Z,1.20
2023-04-08T02:12:02.800Z,1.10
2023-04-08T02:14:31.140Z,1.17
2023-04-08T02:17:06.827Z,1.30
2023-04-08T02:19:42.517Z,1.40
2023-04-08T02:22:14.974Z,1.60
2023-04-08T02:24:44.332Z,1.07
2023-04-08T02:27:12.921Z,1.27
2023-04-08T02:29:42.253Z,0.97
2023-04-08T02:32:12.808Z,1.40
2023-04-08T02:34:42.876Z,1.30
2023-04-08T02:37:11.065Z,1.20
2023-04-08T02:39:38.997Z,1.23
2023-04-08T02:42:06.976Z,1.10
2023-04-08T02:44:34.850Z,1.40
2023-04-08T02:47:02.736Z,1.27
2023-04-08T02:49:30.611Z,1.30
2023-04-08T02:51:59.907Z,1.50
2023-04-08T02:54:27.767Z,1.23
2023-04-08T02:56:55.641Z,1.40
2023-04-08T02:59:23.501Z,1.00
2023-04-08T03:01:51.418Z,0.93
2023-04-08T03:04:19.374Z,1.43
2023-04-08T03:06:47.213Z,1.07
2023-04-08T03:09:16.985Z,1.20
2023-04-08T03:11:45.016Z,1.20
2023-04-08T03:14:12.878Z,1.30
2023-04-08T03:16:40.894Z,1.30
2023-04-08T03:19:08.753Z,1.40
2023-04-08T03:21:36.598Z,1.33
2023-04-08T03:24:04.763Z,1.53
2023-04-08T03:26:33.990Z,0.90
2023-04-08T03:29:01.879Z,1.17
2023-04-08T03:31:30.231Z,1.40
2023-04-08T03:33:58.212Z,1.17
2023-04-08T03:36:26.753Z,0.90
2023-04-08T03:38:54.626Z,1.07
2023-04-08T03:41:22.483Z,1.30
2023-04-08T03:43:51.685Z,1.57
2023-04-08T03:46:19.703Z,1.10
2023-04-08T03:48:47.781Z,1.30
2023-04-08T03:51:15.816Z,1.40
2023-04-08T03:53:43.668Z,1.20
2023-04-08T03:56:11.543Z,1.70
2023-04-08T03:58:39.415Z,1.20
2023-04-08T04:01:08.746Z,1.30
2023-04-08T04:03:37.076Z,1.37
2023-04-08T04:06:05.225Z,1.47
2023-04-08T04:08:33.122Z,1.20
2023-04-08T04:11:01.160Z,1.27
2023-04-08T04:13:29.051Z,1.27
2023-04-08T04:15:57.560Z,1.10
2023-04-08T04:18:26.930Z,1.00
2023-04-08T04:20:54.880Z,1.40
2023-04-08T04:23:24.327Z,1.23
2023-04-08T04:25:52.345Z,0.93
2023-04-08T04:28:20.209Z,1.60
2023-04-08T04:30:48.105Z,1.23
2023-04-08T04:33:15.941Z,1.07
2023-04-08T04:35:45.405Z,1.10
2023-04-08T04:38:13.447Z,1.47
2023-04-08T04:40:41.681Z,1.33
2023-04-08T04:43:09.765Z,1.30
2023-04-08T04:45:37.641Z,1.20
2023-04-08T04:48:05.699Z,1.50
2023-04-08T04:50:33.618Z,1.33
2023-04-08T04:53:02.853Z,1.13
2023-04-08T04:55:30.689Z,1.37
2023-04-08T04:57:58.511Z,1.07
2023-04-08T05:00:26.411Z,1.70
2023-04-08T05:02:54.397Z,1.20
2023-04-08T05:05:22.588Z,1.40
2023-04-08T05:07:50.713Z,1.50
2023-04-08T05:10:20.614Z,1.20
2023-04-08T05:12:48.449Z,1.33
2023-04-08T05:15:16.510Z,1.33
2023-04-08T05:17:44.458Z,1.13
2023-04-08T05:20:13.414Z,1.50
2023-04-08T05:22:42.611Z,1.40
2023-04-08T05:25:11.496Z,1.60
2023-04-08T05:27:41.613Z,1.37
2023-04-08T05:30:10.815Z,1.40
2023-04-08T05:32:38.687Z,1.27
2023-04-08T05:35:07.461Z,1.00
2023-04-08T05:37:35.407Z,1.17
2023-04-08T05:40:03.383Z,1.10
2023-04-08T05:42:32.113Z,1.40
2023-04-08T05:45:01.498Z,1.10
2023-04-08T05:47:29.399Z,1.20
2023-04-08T05:49:57.385Z,1.10
2023-04-08T05:52:25.333Z,1.20
2023-04-08T05:54:53.216Z,1.20
2023-04-08T05:57:21.102Z,1.30
2023-04-08T05:59:48.931Z,1.50
2023-04-08T06:02:18.182Z,1.50
2023-04-08T06:04:46.629Z,1.10
2023-04-08T06:07:14.569Z,1.50
2023-04-08T06:09:43.284Z,1.30
2023-04-08T06:12:12.834Z,1.20
2023-04-08T06:14:40.988Z,1.80
2023-04-08T06:17:08.871Z,1.80
2023-04-08T06:19:38.070Z,1.23
2023-04-08T06:22:06.173Z,1.60
2023-04-08T06:24:34.028Z,1.20
2023-04-08T06:27:02.951Z,1.50
2023-04-08T06:29:31.348Z,1.20
2023-04-08T06:31:59.268Z,1.50
2023-04-08T06:34:27.165Z,1.20
2023-04-08T06:36:56.517Z,1.53
2023-04-08T06:39:24.549Z,1.47
2023-04-08T06:41:52.469Z,1.40
2023-04-08T06:44:21.488Z,1.37
2023-04-08T06:46:49.795Z,1.23
2023-04-08T06:49:17.725Z,1.10
2023-04-08T06:51:45.700Z,1.33
2023-04-08T06:54:14.917Z,1.30
2023-04-08T06:56:42.925Z,1.10
2023-04-08T06:59:11.107Z,1.57
2023-04-08T07:01:39.164Z,1.33
2023-04-08T07:04:07.158Z,1.33
2023-04-08T07:06:35.174Z,0.97
2023-04-08T07:09:03.049Z,1.37
2023-04-08T07:11:32.271Z,1.43
2023-04-08T07:14:00.274Z,1.20
2023-04-08T07:16:28.172Z,1.43
2023-04-08T07:18:56.933Z,1.33
2023-04-08T07:21:24.850Z,1.50
2023-04-08T07:23:52.709Z,1.30
2023-04-08T07:26:20.575Z,1.40
2023-04-08T07:28:50.007Z,1.30
2023-04-08T07:31:19.374Z,1.20
2023-04-08T07:33:47.802Z,1.40
2023-04-08T07:36:18.267Z,1.23
2023-04-08T07:38:46.636Z,1.30
2023-04-08T07:41:14.510Z,1.60
2023-04-08T07:43:42.464Z,1.27
2023-04-08T07:46:11.789Z,1.50
2023-04-08T07:48:40.235Z,1.20
2023-04-08T07:51:11.059Z,1.17
2023-04-08T07:53:40.652Z,1.30
2023-04-08T07:56:12.699Z,1.17
2023-04-08T07:58:41.478Z,1.00
2023-04-08T08:01:18.653Z,1.30
2023-04-08T08:03:48.082Z,1.47
2023-04-08T08:06:16.320Z,1.20
2023-04-08T08:08:44.380Z,1.17
2023-04-08T08:11:12.254Z,1.27
2023-04-08T08:13:40.306Z,1.60
2023-04-08T08:16:11.331Z,1.37
2023-04-08T08:18:41.365Z,1.37
2023-04-08T08:21:09.641Z,1.20
2023-04-08T08:23:38.436Z,1.20
2023-04-08T08:26:09.834Z,1.07
2023-04-08T08:28:38.251Z,1.50
2023-04-08T08:31:06.555Z,1.30
2023-04-08T08:33:34.717Z,1.20
2023-04-08T08:36:05.200Z,1.50
2023-04-08T08:38:33.134Z,1.40
2023-04-08T08:41:02.003Z,1.10
2023-04-08T08:43:33.283Z,1.37
2023-04-08T08:46:01.718Z,1.30
2023-04-08T08:48:29.643Z,1.17
2023-04-08T08:50:57.479Z,1.53
2023-04-08T08:53:33.477Z,1.20
2023-04-08T08:56:17.279Z,1.33
2023-04-08T08:58:47.349Z,1.07
2023-04-08T09:01:34.837Z,1.40
2023-04-08T09:04:15.860Z,1.17
2023-04-08T09:06:44.576Z,1.30
2023-04-08T09:09:14.122Z,1.17
2023-04-08T09:11:43.575Z,1.50
2023-04-08T09:14:21.844Z,1.20
2023-04-08T09:16:49.997Z,1.40
2023-04-08T09:19:18.087Z,1.40
2023-04-08T09:21:46.071Z,1.23
2023-04-08T09:27:09.204Z,1.10
2023-04-08T09:29:39.601Z,1.40
2023-04-08T09:32:08.133Z,1.30
2023-04-08T09:34:36.633Z,1.40
2023-04-08T09:37:04.548Z,1.13
2023-04-08T09:39:32.444Z,1.67
2023-04-08T09:42:03.179Z,1.27
2023-04-08T09:44:35.230Z,1.00
2023-04-08T09:47:09.419Z,1.73
2023-04-08T09:49:43.326Z,1.57
2023-04-08T09:52:14.793Z,1.30
2023-04-08T09:54:48.975Z,1.00
2023-04-08T09:57:23.041Z,1.50
2023-04-08T09:59:58.682Z,1.20
2023-04-08T10:02:32.115Z,1.20
2023-04-08T10:05:08.156Z,1.40
2023-04-08T10:07:36.679Z,1.20
2023-04-08T10:10:05.277Z,1.50
2023-04-08T10:12:33.787Z,1.47
2023-04-08T10:15:26.039Z,1.50
2023-04-08T10:17:54.442Z,1.50
2023-04-08T10:20:49.816Z,1.60
2023-04-08T10:23:19.075Z,1.20
2023-04-08T10:25:48.507Z,1.50
2023-04-08T10:28:34.142Z,1.10
2023-04-08T10:31:03.649Z,1.63
2023-04-08T10:33:38.433Z,1.63
2023-04-08T10:36:11.998Z,1.37
2023-04-08T10:38:40.121Z,1.67
2023-04-08T10:41:08.316Z,1.67
2023-04-08T10:43:37.096Z,1.53
2023-04-08T10:46:06.870Z,1.40
2023-04-08T10:48:34.953Z,1.50
2023-04-08T10:51:04.170Z,1.23
2023-04-08T10:53:33.678Z,1.30
2023-04-08T10:56:06.960Z,1.27
2023-04-08T10:58:35.491Z,1.60
2023-04-08T11:01:08.487Z,1.30
2023-04-08T11:03:37.965Z,1.57
2023-04-08T11:06:07.446Z,1.27
2023-04-08T11:08:36.689Z,1.67
2023-04-08T11:11:08.697Z,1.10
2023-04-08T11:13:37.634Z,1.50
2023-04-08T11:16:17.778Z,1.90
2023-04-08T11:18:47.872Z,1.57
2023-04-08T11:21:17.401Z,1.47
2023-04-08T11:23:45.393Z,1.50
2023-04-08T11:26:14.652Z,1.53
2023-04-08T11:28:43.362Z,1.53
2023-04-08T11:31:13.302Z,1.30
2023-04-08T11:33:47.020Z,1.73
2023-04-08T11:36:15.302Z,1.70
2023-04-08T11:38:43.220Z,1.33
2023-04-08T11:41:12.150Z,1.47
2023-04-08T11:43:40.981Z,1.50
2023-04-08T11:46:13.650Z,1.60
2023-04-08T11:48:41.585Z,1.60
2023-04-08T11:51:09.997Z,1.33
2023-04-08T11:53:37.891Z,1.33
2023-04-08T11:56:17.969Z,1.50
2023-04-08T11:58:45.896Z,2.00
2023-04-08T12:01:15.538Z,1.20
2023-04-08T12:03:56.154Z,1.33
2023-04-08T12:06:27.187Z,1.27
2023-04-08T12:08:56.184Z,1.50
2023-04-08T12:11:24.683Z,1.73
2023-04-08T12:13:53.013Z,1.60
2023-04-08T12:16:22.606Z,2.00
2023-04-08T12:18:50.862Z,1.60
2023-04-08T12:21:18.748Z,1.57
2023-04-08T12:23:46.774Z,1.67
2023-04-08T12:26:14.693Z,1.63
2023-04-08T12:28:42.591Z,1.67
2023-04-08T12:31:10.497Z,1.70
2023-04-08T12:33:39.748Z,1.23
2023-04-08T12:36:07.955Z,1.80
2023-04-08T12:38:35.799Z,1.50
2023-04-08T12:41:03.699Z,1.97
2023-04-08T12:43:32.779Z,1.63
2023-04-08T12:46:01.669Z,1.70
2023-04-08T12:48:29.663Z,1.83
2023-04-08T12:50:58.889Z,1.60
2023-04-08T12:53:26.762Z,1.60
2023-04-08T12:55:57.040Z,1.47
2023-04-08T12:58:25.693Z,1.57
2023-04-08T13:00:53.711Z,1.57
2023-04-08T13:03:21.716Z,1.60
2023-04-08T13:05:49.686Z,1.37
2023-04-08T13:08:19.257Z,2.10
2023-04-08T13:10:47.275Z,1.63
2023-04-08T13:13:15.148Z,1.70
2023-04-08T13:15:43.762Z,1.67
2023-04-08T13:18:11.664Z,1.83
2023-04-08T13:20:39.766Z,1.30
2023-04-08T13:23:07.656Z,1.60
2023-04-08T13:25:36.870Z,1.93
2023-04-08T13:28:05.414Z,1.47
2023-04-08T13:30:33.313Z,1.87
2023-04-08T13:33:01.275Z,1.73
2023-04-08T13:35:29.201Z,1.83
2023-04-08T13:37:57.194Z,1.80
2023-04-08T13:40:25.236Z,1.63
2023-04-08T13:42:54.509Z,1.80
2023-04-08T13:45:22.586Z,1.70
2023-04-08T13:47:50.558Z,1.73
2023-04-08T13:50:18.615Z,1.90
2023-04-08T13:52:46.602Z,1.40
2023-04-08T13:55:14.438Z,1.90
2023-04-08T13:57:42.299Z,1.67
2023-04-08T14:00:12.979Z,1.57
2023-04-08T14:02:40.924Z,1.60
2023-04-08T14:05:09.522Z,2.00
2023-04-08T14:07:37.465Z,1.60
2023-04-08T14:10:06.269Z,1.60
2023-04-08T14:12:34.133Z,1.60
2023-04-08T14:15:02.866Z,1.53
2023-04-08T14:17:33.019Z,1.90
2023-04-08T14:20:01.079Z,1.67
2023-04-08T14:22:29.001Z,1.70
2023-04-08T14:24:56.858Z,1.70
2023-04-08T14:27:24.792Z,1.40
2023-04-08T14:29:52.687Z,1.67
2023-04-08T14:32:20.531Z,1.80
2023-04-08T14:34:49.942Z,2.00
2023-04-08T14:37:18.834Z,1.90
2023-04-08T14:39:47.278Z,1.80
2023-04-08T14:42:16.579Z,1.67
2023-04-08T14:44:44.622Z,2.10
2023-04-08T14:47:13.079Z,1.70
2023-04-08T14:49:41.210Z,2.00
2023-04-08T14:52:10.506Z,1.67
2023-04-08T14:54:38.834Z,1.60
2023-04-08T14:57:06.708Z,1.67
2023-04-08T14:59:35.084Z,1.73
2023-04-08T15:02:03.120Z,1.50
2023-04-08T15:04:31.152Z,1.90
2023-04-08T15:06:59.111Z,1.90
2023-04-08T15:09:28.458Z,1.80
2023-04-08T15:11:56.525Z,1.50
2023-04-08T15:14:24.484Z,1.37
2023-04-08T15:16:52.395Z,1.83
2023-04-08T15:19:20.428Z,2.00
2023-04-08T15:21:48.319Z,1.90
2023-04-08T15:24:16.209Z,1.90
2023-04-08T15:26:45.527Z,1.70
2023-04-08T15:29:13.489Z,1.80
2023-04-08T15:31:41.443Z,2.00
2023-04-08T15:34:09.351Z,1.70
2023-04-08T15:36:37.766Z,1.80
2023-04-08T15:39:06.054Z,1.80
2023-04-08T15:41:33.996Z,1.50
2023-04-08T15:44:03.198Z,1.80
2023-04-08T15:46:31.465Z,1.77
2023-04-08T15:49:01.325Z,1.83
2023-04-08T15:51:29.320Z,2.00
2023-04-08T15:53:57.472Z,1.80
2023-04-08T15:56:27.018Z,1.80
2023-04-08T15:58:54.871Z,1.70
2023-04-08T16:01:24.281Z,1.80
2023-04-08T16:03:52.219Z,1.87
2023-04-08T16:06:20.402Z,1.67
2023-04-08T16:08:48.794Z,1.30
2023-04-08T16:11:17.557Z,1.67
2023-04-08T16:13:46.195Z,1.60
2023-04-08T16:16:14.123Z,1.90
2023-04-08T16:18:45.469Z,1.80
2023-04-08T16:21:14.796Z,1.87
2023-04-08T16:23:42.680Z,1.70
2023-04-08T16:26:10.685Z,1.77
2023-04-08T16:28:39.854Z,1.97
2023-04-08T16:31:08.255Z,1.77
2023-04-08T16:33:36.620Z,1.83
2023-04-08T16:36:06.408Z,1.63
2023-04-08T16:38:34.372Z,1.60
2023-04-08T16:41:04.341Z,1.60
2023-04-08T16:43:32.362Z,1.77
2023-04-08T16:46:00.216Z,1.50
2023-04-08T16:48:28.244Z,2.00
2023-04-08T16:50:56.536Z,1.50
2023-04-08T16:53:25.726Z,2.00
2023-04-08T16:55:53.579Z,1.40
2023-04-08T16:58:21.444Z,1.80
2023-04-08T17:00:49.311Z,1.80
2023-04-08T17:03:17.957Z,1.90
2023-04-08T17:05:45.928Z,1.83
2023-04-08T17:08:14.104Z,1.80
2023-04-08T17:10:45.258Z,1.43
2023-04-08T17:13:14.872Z,1.77
2023-04-08T17:15:42.896Z,2.03
2023-04-08T17:18:10.758Z,1.60
2023-04-08T17:20:38.626Z,1.80
2023-04-08T17:23:06.824Z,1.50
2023-04-08T17:25:35.421Z,1.57
2023-04-08T17:28:04.604Z,1.77
2023-04-08T17:30:32.629Z,1.63
2023-04-08T17:33:01.438Z,1.90
2023-04-08T17:35:29.348Z,1.93
2023-04-08T17:37:57.549Z,1.50
2023-04-08T17:40:26.461Z,1.90
2023-04-08T17:42:54.310Z,1.80
2023-04-08T17:45:23.556Z,1.80
2023-04-08T17:47:51.753Z,1.57
2023-04-08T17:50:19.816Z,1.53
2023-04-08T17:52:47.850Z,1.87
2023-04-08T17:55:16.083Z,1.80
2023-04-08T17:57:43.961Z,1.40
2023-04-08T18:00:12.439Z,1.60
2023-04-08T18:02:41.953Z,2.00
2023-04-08T18:05:11.444Z,1.73
2023-04-08T18:07:39.463Z,1.80
2023-04-08T18:10:09.155Z,1.80
2023-04-08T18:12:37.009Z,1.70
2023-04-08T18:15:05.524Z,1.60
2023-04-08T18:17:33.450Z,1.70
2023-04-08T18:20:02.722Z,1.60
2023-04-08T18:22:30.768Z,1.57
2023-04-08T18:24:58.718Z,1.87
2023-04-08T18:27:26.620Z,1.60
2023-04-08T18:29:54.755Z,1.40
2023-04-08T18:32:22.779Z,1.80
2023-04-08T18:34:52.367Z,1.50
2023-04-08T18:37:22.015Z,1.57
2023-04-08T18:39:50.133Z,1.83
2023-04-08T18:42:18.168Z,1.90
2023-04-08T18:44:46.061Z,1.80
2023-04-08T18:47:14.124Z,1.60
2023-04-08T18:49:42.032Z,1.40
2023-04-08T18:52:10.004Z,1.93
2023-04-08T18:54:39.201Z,1.70
2023-04-08T18:57:07.128Z,1.60
2023-04-08T18:59:35.228Z,1.50
2023-04-08T19:02:03.215Z,1.37
2023-04-08T19:04:31.251Z,1.80
2023-04-08T19:06:59.114Z,2.20
2023-04-08T19:09:27.072Z,1.33
2023-04-08T19:11:56.318Z,1.37
2023-04-08T19:14:25.423Z,1.77
2023-04-08T19:16:53.328Z,1.70
2023-04-08T19:19:21.186Z,1.90
2023-04-08T19:21:49.018Z,1.70
2023-04-08T19:24:16.911Z,2.00
2023-04-08T19:26:44.766Z,1.73
2023-04-08T19:29:13.994Z,2.10
2023-04-08T19:31:41.948Z,1.90
2023-04-08T19:34:09.835Z,1.80
2023-04-08T19:36:37.701Z,1.53
2023-04-08T19:39:05.788Z,2.00
2023-04-08T19:41:33.766Z,1.70
2023-04-08T19:44:01.691Z,1.80
2023-04-08T19:46:31.022Z,1.40
2023-04-08T19:48:59.620Z,2.03
2023-04-08T19:51:29.184Z,1.70
2023-04-08T19:53:57.109Z,1.70
2023-04-08T19:56:25.527Z,2.37
2023-04-08T19:58:53.704Z,1.53
2023-04-08T20:01:22.265Z,2.23
2023-04-08T20:03:52.312Z,1.60
2023-04-08T20:06:21.157Z,2.27
2023-04-08T20:08:50.138Z,1.70
2023-04-08T20:11:18.299Z,2.00
2023-04-08T20:13:47.060Z,1.70
2023-04-08T20:16:15.286Z,1.50
2023-04-08T20:18:43.190Z,2.00
2023-04-08T20:21:13.919Z,1.70
2023-04-08T20:23:44.346Z,1.60
2023-04-08T20:26:13.168Z,1.70
2023-04-08T20:28:41.442Z,1.73
2023-04-08T20:31:10.413Z,1.60
2023-04-08T20:33:43.564Z,1.90
2023-04-08T20:36:13.649Z,1.40
2023-04-08T20:38:42.431Z,2.03
2023-04-08T20:41:10.523Z,2.10
2023-04-08T20:43:39.379Z,1.63
2023-04-08T20:46:07.453Z,1.80
2023-04-08T20:48:36.079Z,1.90
2023-04-08T20:51:03.987Z,1.70
2023-04-08T20:53:34.514Z,2.30
2023-04-08T20:56:02.986Z,2.00
2023-04-08T20:58:31.517Z,1.87
2023-04-08T21:00:59.964Z,2.07
2023-04-08T21:03:28.148Z,1.80
2023-04-08T21:05:56.738Z,2.17
2023-04-08T21:08:24.627Z,1.97
2023-04-08T21:10:54.563Z,1.90
2023-04-08T21:13:22.815Z,1.93
2023-04-08T21:15:50.683Z,1.63
2023-04-08T21:18:18.491Z,1.87
2023-04-08T21:20:46.529Z,1.80
2023-04-08T21:23:14.413Z,2.10
2023-04-08T21:25:42.244Z,2.00
2023-04-08T21:28:11.432Z,1.90
2023-04-08T21:30:39.368Z,1.83
2023-04-08T21:33:07.334Z,2.13
2023-04-08T21:35:35.274Z,2.40
2023-04-08T21:38:03.143Z,1.87
2023-04-08T21:40:31.004Z,1.90
2023-04-08T21:42:58.841Z,1.87
2023-04-08T21:45:28.152Z,1.73
2023-04-08T21:47:56.072Z,1.90
2023-04-08T21:50:24.391Z,2.40
2023-04-08T21:52:52.265Z,2.30
2023-04-08T21:55:20.259Z,2.00
2023-04-08T21:57:48.904Z,1.73
2023-04-08T22:00:17.024Z,1.93
2023-04-08T22:02:46.312Z,2.27
2023-04-08T22:05:14.309Z,2.00
2023-04-08T22:07:42.315Z,1.70
2023-04-08T22:10:10.945Z,1.57
2023-04-08T22:12:38.806Z,1.93
2023-04-08T22:15:07.647Z,2.73
2023-04-08T22:17:35.902Z,2.10
2023-04-08T22:20:05.922Z,1.90
2023-04-08T22:22:33.913Z,2.00
2023-04-08T22:25:01.847Z,1.80
2023-04-08T22:27:29.968Z,1.60
2023-04-08T22:29:57.886Z,2.10
2023-04-08T22:32:25.910Z,2.10
2023-04-08T22:34:53.758Z,2.00
2023-04-08T22:37:22.981Z,2.30
2023-04-08T22:39:50.858Z,2.23
2023-04-08T22:42:18.745Z,2.03
2023-04-08T22:44:46.590Z,2.03
2023-04-08T22:47:14.467Z,2.10
2023-04-08T22:49:42.731Z,2.30
2023-04-08T22:52:10.829Z,2.20
2023-04-08T22:54:40.222Z,2.50
2023-04-08T22:57:08.107Z,2.27
2023-04-08T22:59:35.964Z,2.40
2023-04-08T23:02:04.039Z,1.90
2023-04-08T23:04:32.163Z,2.10
2023-04-08T23:07:00.263Z,2.10
2023-04-08T23:09:28.368Z,2.20
2023-04-08T23:11:58.125Z,2.57
2023-04-08T23:14:26.328Z,2.40
2023-04-08T23:16:54.266Z,2.20
2023-04-08T23:19:22.164Z,2.30
2023-04-08T23:21:50.022Z,2.03
2023-04-08T23:24:17.909Z,2.10
2023-04-08T23:26:45.955Z,2.07
2023-04-08T23:29:15.379Z,2.27
2023-04-08T23:31:43.706Z,2.03
2023-04-08T23:34:11.848Z,2.10
2023-04-08T23:36:39.729Z,2.00
2023-04-08T23:39:07.720Z,2.00
2023-04-08T23:41:35.584Z,2.23
2023-04-08T23:44:03.435Z,1.70
2023-04-08T23:46:32.709Z,1.80
2023-04-08T23:49:00.649Z,2.13
2023-04-08T23:51:28.853Z,1.93
2023-04-08T23:53:56.757Z,2.43
2023-04-08T23:56:24.665Z,1.80
2023-04-08T23:58:52.810Z,2.17
